Terminal Aerodrome Forecast
Issued by NWS

Home | Current Version | Previous Version | Text Only | Print | Product List | Glossary Off
Versions: 1 2 3 4 5 6 7 8 9 10 11 12 13 14 15 16 17

000
FTUS43 KPAH 230500
TAFCGI
TAF
KCGI 230520Z 2306/2406 VRB03KT P6SM SCT150
      TEMPO 2308/2311 3SM BR MIFG
     FM231200 23004KT P6SM VCSH SCT045 BKN150
     FM231800 30007KT P6SM BKN040
     FM240000 36006KT P6SM SCT050=

USA.gov is the U.S. government's official web portal to all federal, state and local government web resources and services.